sensor_id;sensor_type;location;lat;lon;timestamp;P1;durP1;ratioP1;P2;durP2;ratioP2
6251;SDS011;3159;52.414;9.784;2024-03-23T00:55:33;11.67;;;6.60;;
6251;SDS011;3159;52.414;9.784;2024-03-23T00:58:00;12.87;;;7.20;;
6251;SDS011;3159;52.414;9.784;2024-03-23T01:00:26;11.60;;;6.87;;
6251;SDS011;3159;52.414;9.784;2024-03-23T01:02:52;10.13;;;6.67;;
6251;SDS011;3159;52.414;9.784;2024-03-23T01:05:18;12.90;;;6.83;;
6251;SDS011;3159;52.414;9.784;2024-03-23T01:07:45;12.30;;;7.20;;
6251;SDS011;3159;52.414;9.784;2024-03-23T01:10:11;9.77;;;6.40;;
6251;SDS011;3159;52.414;9.784;2024-03-23T01:12:39;12.63;;;6.60;;
6251;SDS011;3159;52.414;9.784;2024-03-23T01:15:05;11.57;;;5.90;;
6251;SDS011;3159;52.414;9.784;2024-03-23T01:17:32;12.23;;;6.37;;
6251;SDS011;3159;52.414;9.784;2024-03-23T01:19:58;11.57;;;6.03;;
6251;SDS011;3159;52.414;9.784;2024-03-23T01:22:24;12.03;;;5.53;;
6251;SDS011;3159;52.414;9.784;2024-03-23T01:24:50;13.40;;;6.03;;
6251;SDS011;3159;52.414;9.784;2024-03-23T01:27:17;11.97;;;5.77;;
6251;SDS011;3159;52.414;9.784;2024-03-23T01:29:44;9.70;;;5.00;;
6251;SDS011;3159;52.414;9.784;2024-03-23T01:32:11;10.17;;;5.20;;
6251;SDS011;3159;52.414;9.784;2024-03-23T01:34:37;10.33;;;5.23;;
6251;SDS011;3159;52.414;9.784;2024-03-23T01:37:03;9.27;;;4.70;;
6251;SDS011;3159;52.414;9.784;2024-03-23T01:39:29;11.23;;;4.60;;
6251;SDS011;3159;52.414;9.784;2024-03-23T01:41:56;8.17;;;4.50;;
6251;SDS011;3159;52.414;9.784;2024-03-23T01:44:22;11.63;;;4.37;;
6251;SDS011;3159;52.414;9.784;2024-03-23T01:46:50;5.70;;;3.90;;
6251;SDS011;3159;52.414;9.784;2024-03-23T01:49:16;10.07;;;4.00;;
6251;SDS011;3159;52.414;9.784;2024-03-23T01:51:43;9.07;;;3.83;;
6251;SDS011;3159;52.414;9.784;2024-03-23T01:54:10;8.87;;;3.93;;
6251;SDS011;3159;52.414;9.784;2024-03-23T01:56:37;7.93;;;3.87;;
6251;SDS011;3159;52.414;9.784;2024-03-23T01:59:03;8.73;;;4.20;;
6251;SDS011;3159;52.414;9.784;2024-03-23T02:01:30;7.17;;;4.07;;
6251;SDS011;3159;52.414;9.784;2024-03-23T02:03:57;8.90;;;3.53;;
6251;SDS011;3159;52.414;9.784;2024-03-23T02:06:24;7.93;;;3.60;;
6251;SDS011;3159;52.414;9.784;2024-03-23T02:08:50;8.23;;;3.83;;
6251;SDS011;3159;52.414;9.784;2024-03-23T02:11:17;8.17;;;3.90;;
6251;SDS011;3159;52.414;9.784;2024-03-23T02:13:43;8.97;;;4.60;;
6251;SDS011;3159;52.414;9.784;2024-03-23T02:16:10;11.67;;;4.83;;
6251;SDS011;3159;52.414;9.784;2024-03-23T02:18:36;7.20;;;4.60;;
6251;SDS011;3159;52.414;9.784;2024-03-23T02:21:05;10.60;;;4.30;;
6251;SDS011;3159;52.414;9.784;2024-03-23T02:23:32;10.27;;;4.13;;
6251;SDS011;3159;52.414;9.784;2024-03-23T02:25:58;11.80;;;4.80;;
6251;SDS011;3159;52.414;9.784;2024-03-23T02:28:24;8.83;;;4.30;;
6251;SDS011;3159;52.414;9.784;2024-03-23T02:30:51;11.10;;;4.60;;
6251;SDS011;3159;52.414;9.784;2024-03-23T02:33:17;7.23;;;4.07;;
6251;SDS011;3159;52.414;9.784;2024-03-23T02:35:44;8.90;;;4.53;;
6251;SDS011;3159;52.414;9.784;2024-03-23T02:38:10;12.53;;;4.77;;
6251;SDS011;3159;52.414;9.784;2024-03-23T02:40:38;7.93;;;4.40;;
6251;SDS011;3159;52.414;9.784;2024-03-23T02:43:04;8.33;;;4.73;;
6251;SDS011;3159;52.414;9.784;2024-03-23T02:45:31;8.77;;;4.33;;
6251;SDS011;3159;52.414;9.784;2024-03-23T02:47:57;10.90;;;4.47;;
6251;SDS011;3159;52.414;9.784;2024-03-23T02:50:24;9.30;;;4.37;;
6251;SDS011;3159;52.414;9.784;2024-03-23T02:52:49;8.00;;;4.47;;
6251;SDS011;3159;52.414;9.784;2024-03-23T02:55:16;11.03;;;4.57;;
6251;SDS011;3159;52.414;9.784;2024-03-23T02:57:43;14.03;;;4.67;;
6251;SDS011;3159;52.414;9.784;2024-03-23T03:00:10;11.77;;;4.90;;
6251;SDS011;3159;52.414;9.784;2024-03-23T03:02:37;9.17;;;4.30;;
6251;SDS011;3159;52.414;9.784;2024-03-23T03:05:04;9.73;;;4.30;;
6251;SDS011;3159;52.414;9.784;2024-03-23T03:07:31;8.60;;;3.90;;
6251;SDS011;3159;52.414;9.784;2024-03-23T03:09:58;8.40;;;3.53;;
6251;SDS011;3159;52.414;9.784;2024-03-23T03:12:24;11.77;;;4.23;;
6251;SDS011;3159;52.414;9.784;2024-03-23T03:14:52;9.03;;;4.40;;
6251;SDS011;3159;52.414;9.784;2024-03-23T03:17:17;9.30;;;4.33;;
6251;SDS011;3159;52.414;9.784;2024-03-23T03:19:45;8.37;;;3.80;;
6251;SDS011;3159;52.414;9.784;2024-03-23T03:22:11;8.87;;;4.03;;
6251;SDS011;3159;52.414;9.784;2024-03-23T03:24:37;9.33;;;4.30;;
6251;SDS011;3159;52.414;9.784;2024-03-23T03:27:03;9.33;;;4.50;;
6251;SDS011;3159;52.414;9.784;2024-03-23T03:29:31;10.83;;;4.37;;
6251;SDS011;3159;52.414;9.784;2024-03-23T03:32:02;10.77;;;4.10;;
6251;SDS011;3159;52.414;9.784;2024-03-23T03:34:29;9.03;;;3.63;;
6251;SDS011;3159;52.414;9.784;2024-03-23T03:36:54;9.73;;;3.93;;
6251;SDS011;3159;52.414;9.784;2024-03-23T03:39:22;7.53;;;3.97;;
6251;SDS011;3159;52.414;9.784;2024-03-23T03:41:48;10.87;;;4.53;;
6251;SDS011;3159;52.414;9.784;2024-03-23T03:44:14;7.97;;;4.13;;
6251;SDS011;3159;52.414;9.784;2024-03-23T03:46:40;8.67;;;4.30;;
6251;SDS011;3159;52.414;9.784;2024-03-23T03:49:08;8.50;;;4.40;;
6251;SDS011;3159;52.414;9.784;2024-03-23T03:51:35;9.80;;;4.17;;
6251;SDS011;3159;52.414;9.784;2024-03-23T03:54:02;9.30;;;4.40;;
6251;SDS011;3159;52.414;9.784;2024-03-23T03:56:28;9.53;;;4.67;;
6251;SDS011;3159;52.414;9.784;2024-03-23T03:58:55;8.80;;;4.23;;
6251;SDS011;3159;52.414;9.784;2024-03-23T04:01:21;9.13;;;4.43;;
6251;SDS011;3159;52.414;9.784;2024-03-23T04:03:47;7.70;;;4.43;;
6251;SDS011;3159;52.414;9.784;2024-03-23T04:06:19;10.20;;;4.37;;
6251;SDS011;3159;52.414;9.784;2024-03-23T04:08:46;10.53;;;4.90;;
6251;SDS011;3159;52.414;9.784;2024-03-23T04:11:12;9.73;;;4.70;;
6251;SDS011;3159;52.414;9.784;2024-03-23T04:13:39;6.47;;;4.30;;
6251;SDS011;3159;52.414;9.784;2024-03-23T04:16:06;8.33;;;4.30;;
6251;SDS011;3159;52.414;9.784;2024-03-23T04:18:34;8.87;;;4.60;;
6251;SDS011;3159;52.414;9.784;2024-03-23T04:21:00;9.37;;;3.87;;
6251;SDS011;3159;52.414;9.784;2024-03-23T04:23:28;7.83;;;3.60;;
6251;SDS011;3159;52.414;9.784;2024-03-23T04:25:53;8.00;;;3.57;;
6251;SDS011;3159;52.414;9.784;2024-03-23T04:28:20;7.13;;;3.53;;
6251;SDS011;3159;52.414;9.784;2024-03-23T04:30:47;8.00;;;3.50;;
6251;SDS011;3159;52.414;9.784;2024-03-23T04:33:14;8.33;;;3.80;;
6251;SDS011;3159;52.414;9.784;2024-03-23T04:35:39;5.07;;;3.00;;
6251;SDS011;3159;52.414;9.784;2024-03-23T04:38:06;6.73;;;3.30;;
6251;SDS011;3159;52.414;9.784;2024-03-23T04:40:35;11.23;;;3.90;;
6251;SDS011;3159;52.414;9.784;2024-03-23T04:43:02;7.90;;;3.87;;
6251;SDS011;3159;52.414;9.784;2024-03-23T04:45:29;7.83;;;3.80;;
6251;SDS011;3159;52.414;9.784;2024-03-23T04:47:56;7.90;;;4.00;;
6251;SDS011;3159;52.414;9.784;2024-03-23T04:50:23;8.60;;;3.40;;
6251;SDS011;3159;52.414;9.784;2024-03-23T04:52:49;8.77;;;3.70;;
6251;SDS011;3159;52.414;9.784;2024-03-23T04:55:16;10.07;;;3.77;;
6251;SDS011;3159;52.414;9.784;2024-03-23T04:57:44;7.03;;;3.63;;
6251;SDS011;3159;52.414;9.784;2024-03-23T05:00:12;10.37;;;4.00;;
6251;SDS011;3159;52.414;9.784;2024-03-23T05:02:42;8.87;;;3.70;;
6251;SDS011;3159;52.414;9.784;2024-03-23T05:05:10;11.53;;;3.73;;
6251;SDS011;3159;52.414;9.784;2024-03-23T05:07:36;8.30;;;2.60;;
6251;SDS011;3159;52.414;9.784;2024-03-23T05:10:03;6.90;;;2.17;;
6251;SDS011;3159;52.414;9.784;2024-03-23T05:12:29;4.40;;;1.57;;
6251;SDS011;3159;52.414;9.784;2024-03-23T05:14:57;5.80;;;2.30;;
6251;SDS011;3159;52.414;9.784;2024-03-23T05:17:23;5.33;;;1.87;;
6251;SDS011;3159;52.414;9.784;2024-03-23T05:19:50;4.07;;;2.07;;
6251;SDS011;3159;52.414;9.784;2024-03-23T05:22:16;4.03;;;2.00;;
6251;SDS011;3159;52.414;9.784;2024-03-23T05:24:44;3.43;;;1.20;;
6251;SDS011;3159;52.414;9.784;2024-03-23T05:27:10;5.20;;;1.50;;
6251;SDS011;3159;52.414;9.784;2024-03-23T05:29:38;7.37;;;1.97;;
6251;SDS011;3159;52.414;9.784;2024-03-23T05:32:06;2.83;;;1.20;;
6251;SDS011;3159;52.414;9.784;2024-03-23T05:34:33;3.90;;;1.53;;
6251;SDS011;3159;52.414;9.784;2024-03-23T05:36:59;5.00;;;1.47;;
6251;SDS011;3159;52.414;9.784;2024-03-23T05:39:25;5.50;;;1.30;;
6251;SDS011;3159;52.414;9.784;2024-03-23T05:41:51;3.93;;;1.17;;
6251;SDS011;3159;52.414;9.784;2024-03-23T05:44:18;4.37;;;1.30;;
6251;SDS011;3159;52.414;9.784;2024-03-23T05:46:44;2.97;;;1.03;;
6251;SDS011;3159;52.414;9.784;2024-03-23T05:49:15;8.33;;;1.73;;
6251;SDS011;3159;52.414;9.784;2024-03-23T05:51:41;4.13;;;1.20;;
6251;SDS011;3159;52.414;9.784;2024-03-23T05:54:08;2.93;;;0.90;;
6251;SDS011;3159;52.414;9.784;2024-03-23T05:56:34;2.77;;;1.30;;
6251;SDS011;3159;52.414;9.784;2024-03-23T05:59:01;3.57;;;1.20;;
6251;SDS011;3159;52.414;9.784;2024-03-23T06:01:28;3.17;;;1.37;;
6251;SDS011;3159;52.414;9.784;2024-03-23T06:03:57;4.77;;;1.13;;
6251;SDS011;3159;52.414;9.784;2024-03-23T06:06:24;4.93;;;1.40;;
6251;SDS011;3159;52.414;9.784;2024-03-23T06:08:51;4.40;;;1.70;;
6251;SDS011;3159;52.414;9.784;2024-03-23T06:11:17;5.70;;;1.70;;
6251;SDS011;3159;52.414;9.784;2024-03-23T06:13:44;6.77;;;1.80;;
6251;SDS011;3159;52.414;9.784;2024-03-23T06:16:10;2.97;;;1.40;;
6251;SDS011;3159;52.414;9.784;2024-03-23T06:18:36;4.07;;;1.50;;
6251;SDS011;3159;52.414;9.784;2024-03-23T06:21:02;4.87;;;1.23;;
6251;SDS011;3159;52.414;9.784;2024-03-23T06:23:31;4.83;;;1.27;;
6251;SDS011;3159;52.414;9.784;2024-03-23T06:25:57;5.70;;;1.60;;
6251;SDS011;3159;52.414;9.784;2024-03-23T06:28:23;6.30;;;1.80;;
6251;SDS011;3159;52.414;9.784;2024-03-23T06:30:50;5.23;;;1.57;;
6251;SDS011;3159;52.414;9.784;2024-03-23T06:33:16;5.10;;;1.67;;
6251;SDS011;3159;52.414;9.784;2024-03-23T06:35:43;2.83;;;1.23;;
6251;SDS011;3159;52.414;9.784;2024-03-23T06:38:15;3.10;;;1.63;;
6251;SDS011;3159;52.414;9.784;2024-03-23T06:40:46;6.33;;;1.73;;
6251;SDS011;3159;52.414;9.784;2024-03-23T06:43:13;6.03;;;2.07;;
6251;SDS011;3159;52.414;9.784;2024-03-23T06:45:40;7.50;;;1.93;;
6251;SDS011;3159;52.414;9.784;2024-03-23T06:48:06;5.57;;;2.20;;
6251;SDS011;3159;52.414;9.784;2024-03-23T06:50:33;7.17;;;2.20;;
6251;SDS011;3159;52.414;9.784;2024-03-23T06:52:59;7.50;;;2.30;;
6251;SDS011;3159;52.414;9.784;2024-03-23T06:55:27;9.50;;;2.77;;
6251;SDS011;3159;52.414;9.784;2024-03-23T06:57:54;9.47;;;3.07;;
6251;SDS011;3159;52.414;9.784;2024-03-23T07:00:21;10.33;;;3.73;;
6251;SDS011;3159;52.414;9.784;2024-03-23T07:02:47;10.43;;;3.63;;
6251;SDS011;3159;52.414;9.784;2024-03-23T07:05:14;8.90;;;3.60;;
6251;SDS011;3159;52.414;9.784;2024-03-23T07:07:39;11.37;;;3.90;;
6251;SDS011;3159;52.414;9.784;2024-03-23T07:10:06;11.23;;;4.43;;
6251;SDS011;3159;52.414;9.784;2024-03-23T07:12:32;12.50;;;4.73;;
6251;SDS011;3159;52.414;9.784;2024-03-23T07:15:01;9.67;;;4.47;;
6251;SDS011;3159;52.414;9.784;2024-03-23T07:17:26;11.30;;;3.90;;
6251;SDS011;3159;52.414;9.784;2024-03-23T07:19:53;11.53;;;4.70;;
6251;SDS011;3159;52.414;9.784;2024-03-23T07:22:19;11.70;;;4.83;;
6251;SDS011;3159;52.414;9.784;2024-03-23T07:24:46;12.87;;;5.03;;
6251;SDS011;3159;52.414;9.784;2024-03-23T07:27:12;13.10;;;4.80;;
6251;SDS011;3159;52.414;9.784;2024-03-23T07:29:39;13.53;;;4.40;;
6251;SDS011;3159;52.414;9.784;2024-03-23T07:32:06;11.93;;;4.70;;
6251;SDS011;3159;52.414;9.784;2024-03-23T07:34:33;15.67;;;4.83;;
6251;SDS011;3159;52.414;9.784;2024-03-23T07:36:59;16.23;;;5.20;;
6251;SDS011;3159;52.414;9.784;2024-03-23T07:39:26;13.27;;;5.03;;
6251;SDS011;3159;52.414;9.784;2024-03-23T07:41:52;15.90;;;5.73;;
6251;SDS011;3159;52.414;9.784;2024-03-23T07:44:19;13.03;;;5.73;;
6251;SDS011;3159;52.414;9.784;2024-03-23T07:46:45;14.10;;;5.70;;
6251;SDS011;3159;52.414;9.784;2024-03-23T07:49:13;12.63;;;5.27;;
6251;SDS011;3159;52.414;9.784;2024-03-23T07:51:39;17.20;;;5.93;;
6251;SDS011;3159;52.414;9.784;2024-03-23T07:54:06;14.37;;;6.40;;
6251;SDS011;3159;52.414;9.784;2024-03-23T07:56:32;17.53;;;6.27;;
6251;SDS011;3159;52.414;9.784;2024-03-23T07:58:59;15.93;;;6.10;;
6251;SDS011;3159;52.414;9.784;2024-03-23T08:01:25;17.30;;;6.80;;
6251;SDS011;3159;52.414;9.784;2024-03-23T08:03:52;18.90;;;6.70;;
6251;SDS011;3159;52.414;9.784;2024-03-23T08:06:20;20.60;;;6.47;;
6251;SDS011;3159;52.414;9.784;2024-03-23T08:08:49;19.00;;;6.70;;
6251;SDS011;3159;52.414;9.784;2024-03-23T08:11:24;17.23;;;6.50;;
6251;SDS011;3159;52.414;9.784;2024-03-23T08:13:51;17.43;;;6.83;;
6251;SDS011;3159;52.414;9.784;2024-03-23T08:16:17;16.23;;;6.40;;
6251;SDS011;3159;52.414;9.784;2024-03-23T08:18:43;16.03;;;6.13;;
6251;SDS011;3159;52.414;9.784;2024-03-23T08:21:09;14.23;;;6.23;;
6251;SDS011;3159;52.414;9.784;2024-03-23T08:23:38;16.20;;;6.97;;
6251;SDS011;3159;52.414;9.784;2024-03-23T08:26:04;22.40;;;7.50;;
6251;SDS011;3159;52.414;9.784;2024-03-23T08:28:32;19.53;;;7.50;;
6251;SDS011;3159;52.414;9.784;2024-03-23T08:31:00;22.30;;;7.13;;
6251;SDS011;3159;52.414;9.784;2024-03-23T08:33:27;21.40;;;7.90;;
6251;SDS011;3159;52.414;9.784;2024-03-23T08:35:53;18.20;;;7.13;;
6251;SDS011;3159;52.414;9.784;2024-03-23T08:38:21;19.97;;;7.80;;
6251;SDS011;3159;52.414;9.784;2024-03-23T08:40:53;21.40;;;7.60;;
6251;SDS011;3159;52.414;9.784;2024-03-23T08:43:23;18.13;;;6.80;;
6251;SDS011;3159;52.414;9.784;2024-03-23T08:45:48;14.20;;;6.33;;
6251;SDS011;3159;52.414;9.784;2024-03-23T08:48:15;14.20;;;6.33;;
6251;SDS011;3159;52.414;9.784;2024-03-23T08:50:41;22.67;;;7.43;;
6251;SDS011;3159;52.414;9.784;2024-03-23T08:53:08;14.27;;;6.23;;
6251;SDS011;3159;52.414;9.784;2024-03-23T08:55:34;17.80;;;6.37;;
6251;SDS011;3159;52.414;9.784;2024-03-23T08:58:03;18.80;;;5.60;;
6251;SDS011;3159;52.414;9.784;2024-03-23T09:00:29;18.03;;;6.33;;
6251;SDS011;3159;52.414;9.784;2024-03-23T09:02:56;11.80;;;5.27;;
6251;SDS011;3159;52.414;9.784;2024-03-23T09:05:26;12.87;;;4.97;;
6251;SDS011;3159;52.414;9.784;2024-03-23T09:08:02;14.83;;;4.93;;
6251;SDS011;3159;52.414;9.784;2024-03-23T09:10:31;17.03;;;5.27;;
6251;SDS011;3159;52.414;9.784;2024-03-23T09:13:06;12.00;;;4.50;;
6251;SDS011;3159;52.414;9.784;2024-03-23T09:15:50;16.10;;;5.23;;
6251;SDS011;3159;52.414;9.784;2024-03-23T09:18:21;17.53;;;5.43;;
6251;SDS011;3159;52.414;9.784;2024-03-23T09:20:47;15.93;;;5.30;;
6251;SDS011;3159;52.414;9.784;2024-03-23T09:23:20;12.37;;;4.33;;
6251;SDS011;3159;52.414;9.784;2024-03-23T09:25:48;21.97;;;5.00;;
6251;SDS011;3159;52.414;9.784;2024-03-23T09:28:31;13.60;;;4.87;;
6251;SDS011;3159;52.414;9.784;2024-03-23T09:31:06;15.97;;;5.17;;
6251;SDS011;3159;52.414;9.784;2024-03-23T09:33:44;15.53;;;4.90;;
6251;SDS011;3159;52.414;9.784;2024-03-23T09:36:15;13.00;;;4.60;;
6251;SDS011;3159;52.414;9.784;2024-03-23T09:41:38;12.53;;;4.03;;
6251;SDS011;3159;52.414;9.784;2024-03-23T09:44:07;18.03;;;4.80;;
6251;SDS011;3159;52.414;9.784;2024-03-23T09:46:33;15.33;;;4.03;;
6251;SDS011;3159;52.414;9.784;2024-03-23T09:49:01;13.33;;;3.93;;
6251;SDS011;3159;52.414;9.784;2024-03-23T09:51:29;10.13;;;3.40;;
6251;SDS011;3159;52.414;9.784;2024-03-23T09:53:56;9.83;;;3.10;;
6251;SDS011;3159;52.414;9.784;2024-03-23T09:56:22;10.53;;;3.20;;
6251;SDS011;3159;52.414;9.784;2024-03-23T09:58:49;9.53;;;3.13;;
6251;SDS011;3159;52.414;9.784;2024-03-23T10:01:16;11.40;;;3.03;;
6251;SDS011;3159;52.414;9.784;2024-03-23T10:03:44;12.80;;;3.60;;
6251;SDS011;3159;52.414;9.784;2024-03-23T10:06:10;8.93;;;2.93;;
6251;SDS011;3159;52.414;9.784;2024-03-23T10:08:37;12.10;;;3.13;;
6251;SDS011;3159;52.414;9.784;2024-03-23T10:11:12;11.43;;;2.80;;
6251;SDS011;3159;52.414;9.784;2024-03-23T10:13:41;12.77;;;3.00;;
6251;SDS011;3159;52.414;9.784;2024-03-23T10:16:08;8.13;;;2.47;;
6251;SDS011;3159;52.414;9.784;2024-03-23T10:18:40;5.30;;;2.17;;
6251;SDS011;3159;52.414;9.784;2024-03-23T10:21:06;8.50;;;2.07;;
6251;SDS011;3159;52.414;9.784;2024-03-23T10:23:36;7.07;;;2.20;;
6251;SDS011;3159;52.414;9.784;2024-03-23T10:26:12;7.10;;;2.17;;
6251;SDS011;3159;52.414;9.784;2024-03-23T10:28:50;8.60;;;2.37;;
6251;SDS011;3159;52.414;9.784;2024-03-23T10:31:20;9.10;;;2.00;;
6251;SDS011;3159;52.414;9.784;2024-03-23T10:33:49;6.83;;;2.30;;
6251;SDS011;3159;52.414;9.784;2024-03-23T10:36:15;7.87;;;1.87;;
6251;SDS011;3159;52.414;9.784;2024-03-23T10:38:42;4.23;;;1.87;;
6251;SDS011;3159;52.414;9.784;2024-03-23T10:41:09;6.07;;;1.87;;
6251;SDS011;3159;52.414;9.784;2024-03-23T10:43:36;7.83;;;1.80;;
6251;SDS011;3159;52.414;9.784;2024-03-23T10:46:03;5.63;;;2.10;;
6251;SDS011;3159;52.414;9.784;2024-03-23T10:48:30;4.70;;;1.70;;
6251;SDS011;3159;52.414;9.784;2024-03-23T10:50:59;6.73;;;2.27;;
6251;SDS011;3159;52.414;9.784;2024-03-23T10:53:26;3.23;;;1.70;;
6251;SDS011;3159;52.414;9.784;2024-03-23T10:55:53;4.37;;;1.57;;
6251;SDS011;3159;52.414;9.784;2024-03-23T10:58:23;3.83;;;1.77;;
6251;SDS011;3159;52.414;9.784;2024-03-23T11:01:02;7.80;;;2.70;;
6251;SDS011;3159;52.414;9.784;2024-03-23T11:03:33;7.50;;;2.23;;
6251;SDS011;3159;52.414;9.784;2024-03-23T11:06:02;2.33;;;1.60;;
6251;SDS011;3159;52.414;9.784;2024-03-23T11:08:30;2.90;;;1.20;;
6251;SDS011;3159;52.414;9.784;2024-03-23T11:13:57;6.10;;;4.40;;
6251;SDS011;3159;52.414;9.784;2024-03-23T11:16:25;7.13;;;3.70;;
6251;SDS011;3159;52.414;9.784;2024-03-23T11:18:55;5.97;;;3.30;;
6251;SDS011;3159;52.414;9.784;2024-03-23T11:22:09;5.67;;;1.90;;
6251;SDS011;3159;52.414;9.784;2024-03-23T11:24:36;5.73;;;2.50;;
6251;SDS011;3159;52.414;9.784;2024-03-23T11:27:03;6.90;;;2.10;;
6251;SDS011;3159;52.414;9.784;2024-03-23T11:29:42;3.40;;;1.50;;
6251;SDS011;3159;52.414;9.784;2024-03-23T11:32:07;3.10;;;1.37;;
6251;SDS011;3159;52.414;9.784;2024-03-23T11:34:38;5.90;;;4.17;;
6251;SDS011;3159;52.414;9.784;2024-03-23T11:37:04;9.00;;;5.03;;
6251;SDS011;3159;52.414;9.784;2024-03-23T11:39:32;6.97;;;3.57;;
6251;SDS011;3159;52.414;9.784;2024-03-23T11:41:58;4.00;;;2.33;;
6251;SDS011;3159;52.414;9.784;2024-03-23T11:44:25;3.97;;;1.50;;
6251;SDS011;3159;52.414;9.784;2024-03-23T11:46:52;4.37;;;1.60;;
6251;SDS011;3159;52.414;9.784;2024-03-23T11:49:19;2.90;;;1.80;;
6251;SDS011;3159;52.414;9.784;2024-03-23T11:51:49;4.63;;;2.10;;
6251;SDS011;3159;52.414;9.784;2024-03-23T11:54:16;2.10;;;1.60;;
6251;SDS011;3159;52.414;9.784;2024-03-23T11:56:56;2.50;;;1.50;;
6251;SDS011;3159;52.414;9.784;2024-03-23T11:59:31;4.40;;;1.80;;
6251;SDS011;3159;52.414;9.784;2024-03-23T12:01:58;2.30;;;1.33;;
6251;SDS011;3159;52.414;9.784;2024-03-23T12:04:26;3.83;;;1.23;;
6251;SDS011;3159;52.414;9.784;2024-03-23T12:09:37;2.50;;;1.23;;
6251;SDS011;3159;52.414;9.784;2024-03-23T12:12:13;1.80;;;1.20;;
6251;SDS011;3159;52.414;9.784;2024-03-23T12:14:41;1.50;;;0.97;;
6251;SDS011;3159;52.414;9.784;2024-03-23T12:17:10;2.83;;;1.00;;
6251;SDS011;3159;52.414;9.784;2024-03-23T12:19:41;2.40;;;1.03;;
6251;SDS011;3159;52.414;9.784;2024-03-23T12:22:07;1.60;;;1.07;;
6251;SDS011;3159;52.414;9.784;2024-03-23T12:24:34;4.97;;;1.17;;
6251;SDS011;3159;52.414;9.784;2024-03-23T12:27:01;3.20;;;1.63;;
6251;SDS011;3159;52.414;9.784;2024-03-23T12:29:30;2.60;;;1.20;;
6251;SDS011;3159;52.414;9.784;2024-03-23T12:31:58;2.70;;;1.20;;
6251;SDS011;3159;52.414;9.784;2024-03-23T12:34:25;2.00;;;1.10;;
6251;SDS011;3159;52.414;9.784;2024-03-23T12:36:51;2.60;;;1.40;;
6251;SDS011;3159;52.414;9.784;2024-03-23T12:39:18;4.40;;;1.40;;
6251;SDS011;3159;52.414;9.784;2024-03-23T12:41:45;2.17;;;1.20;;
6251;SDS011;3159;52.414;9.784;2024-03-23T12:44:12;3.83;;;1.50;;
6251;SDS011;3159;52.414;9.784;2024-03-23T12:46:40;3.83;;;1.53;;
6251;SDS011;3159;52.414;9.784;2024-03-23T12:49:07;4.20;;;1.60;;
6251;SDS011;3159;52.414;9.784;2024-03-23T12:51:33;2.77;;;1.40;;
6251;SDS011;3159;52.414;9.784;2024-03-23T12:54:00;2.13;;;1.60;;
6251;SDS011;3159;52.414;9.784;2024-03-23T12:56:26;2.60;;;1.57;;
6251;SDS011;3159;52.414;9.784;2024-03-23T12:58:54;3.13;;;1.30;;
6251;SDS011;3159;52.414;9.784;2024-03-23T13:01:22;3.17;;;1.10;;
6251;SDS011;3159;52.414;9.784;2024-03-23T13:03:50;2.70;;;0.93;;
6251;SDS011;3159;52.414;9.784;2024-03-23T13:06:16;3.90;;;0.90;;
6251;SDS011;3159;52.414;9.784;2024-03-23T13:08:43;3.07;;;0.97;;
6251;SDS011;3159;52.414;9.784;2024-03-23T13:11:09;1.50;;;0.80;;
6251;SDS011;3159;52.414;9.784;2024-03-23T13:13:36;2.13;;;0.90;;
6251;SDS011;3159;52.414;9.784;2024-03-23T13:16:03;1.70;;;1.10;;
6251;SDS011;3159;52.414;9.784;2024-03-23T13:18:31;1.63;;;0.90;;
6251;SDS011;3159;52.414;9.784;2024-03-23T13:20:58;2.13;;;0.97;;
6251;SDS011;3159;52.414;9.784;2024-03-23T13:23:25;1.73;;;0.80;;
6251;SDS011;3159;52.414;9.784;2024-03-23T13:25:51;0.80;;;0.70;;
6251;SDS011;3159;52.414;9.784;2024-03-23T13:28:19;2.60;;;1.10;;
6251;SDS011;3159;52.414;9.784;2024-03-23T13:30:51;2.10;;;1.10;;
6251;SDS011;3159;52.414;9.784;2024-03-23T13:33:18;1.53;;;1.13;;
6251;SDS011;3159;52.414;9.784;2024-03-23T13:35:50;2.43;;;1.30;;
6251;SDS011;3159;52.414;9.784;2024-03-23T13:38:18;3.97;;;1.33;;
6251;SDS011;3159;52.414;9.784;2024-03-23T13:40:51;2.40;;;1.50;;
6251;SDS011;3159;52.414;9.784;2024-03-23T13:43:18;2.97;;;1.60;;
6251;SDS011;3159;52.414;9.784;2024-03-23T13:45:44;3.50;;;1.67;;
6251;SDS011;3159;52.414;9.784;2024-03-23T13:48:11;3.73;;;1.40;;
6251;SDS011;3159;52.414;9.784;2024-03-23T13:50:37;4.30;;;1.43;;
6251;SDS011;3159;52.414;9.784;2024-03-23T13:53:04;2.73;;;1.30;;
6251;SDS011;3159;52.414;9.784;2024-03-23T13:55:31;3.90;;;1.60;;
6251;SDS011;3159;52.414;9.784;2024-03-23T13:57:58;3.63;;;1.57;;
6251;SDS011;3159;52.414;9.784;2024-03-23T14:00:24;2.43;;;1.33;;
6251;SDS011;3159;52.414;9.784;2024-03-23T14:02:51;1.87;;;1.20;;
6251;SDS011;3159;52.414;9.784;2024-03-23T14:05:17;4.13;;;1.70;;
6251;SDS011;3159;52.414;9.784;2024-03-23T14:07:43;2.53;;;1.37;;
6251;SDS011;3159;52.414;9.784;2024-03-23T14:10:09;3.33;;;1.23;;
6251;SDS011;3159;52.414;9.784;2024-03-23T14:12:38;2.20;;;1.27;;
6251;SDS011;3159;52.414;9.784;2024-03-23T14:15:05;3.13;;;1.30;;
6251;SDS011;3159;52.414;9.784;2024-03-23T14:17:32;3.27;;;1.40;;
6251;SDS011;3159;52.414;9.784;2024-03-23T14:19:58;2.50;;;1.30;;
6251;SDS011;3159;52.414;9.784;2024-03-23T14:22:26;5.60;;;1.60;;
6251;SDS011;3159;52.414;9.784;2024-03-23T14:24:52;5.53;;;1.33;;
6251;SDS011;3159;52.414;9.784;2024-03-23T14:27:19;5.67;;;1.40;;
6251;SDS011;3159;52.414;9.784;2024-03-23T14:29:47;3.03;;;1.60;;
6251;SDS011;3159;52.414;9.784;2024-03-23T14:32:14;2.97;;;1.30;;
6251;SDS011;3159;52.414;9.784;2024-03-23T14:34:40;2.97;;;1.30;;
6251;SDS011;3159;52.414;9.784;2024-03-23T14:37:07;3.93;;;1.30;;
6251;SDS011;3159;52.414;9.784;2024-03-23T14:39:33;6.13;;;1.43;;
6251;SDS011;3159;52.414;9.784;2024-03-23T14:42:00;6.30;;;1.00;;
6251;SDS011;3159;52.414;9.784;2024-03-23T14:44:26;1.43;;;0.53;;
6251;SDS011;3159;52.414;9.784;2024-03-23T14:46:55;1.50;;;0.60;;
6251;SDS011;3159;52.414;9.784;2024-03-23T14:49:21;1.57;;;0.43;;
6251;SDS011;3159;52.414;9.784;2024-03-23T14:51:48;0.67;;;0.43;;
6251;SDS011;3159;52.414;9.784;2024-03-23T14:54:14;0.50;;;0.43;;
6251;SDS011;3159;52.414;9.784;2024-03-23T14:56:41;2.67;;;0.30;;
6251;SDS011;3159;52.414;9.784;2024-03-23T14:59:07;0.43;;;0.40;;
6251;SDS011;3159;52.414;9.784;2024-03-23T15:01:34;0.60;;;0.40;;
6251;SDS011;3159;52.414;9.784;2024-03-23T15:04:01;1.40;;;0.50;;
6251;SDS011;3159;52.414;9.784;2024-03-23T15:06:29;0.63;;;0.40;;
6251;SDS011;3159;52.414;9.784;2024-03-23T15:08:54;1.50;;;0.57;;
6251;SDS011;3159;52.414;9.784;2024-03-23T15:11:21;1.20;;;0.67;;
6251;SDS011;3159;52.414;9.784;2024-03-23T15:13:49;1.43;;;0.53;;
6251;SDS011;3159;52.414;9.784;2024-03-23T15:16:16;0.83;;;0.70;;
6251;SDS011;3159;52.414;9.784;2024-03-23T15:18:43;1.73;;;0.63;;
6251;SDS011;3159;52.414;9.784;2024-03-23T15:21:11;1.63;;;0.63;;
6251;SDS011;3159;52.414;9.784;2024-03-23T15:23:37;2.83;;;1.60;;
6251;SDS011;3159;52.414;9.784;2024-03-23T15:26:04;1.30;;;0.70;;
6251;SDS011;3159;52.414;9.784;2024-03-23T15:28:31;1.40;;;0.73;;
6251;SDS011;3159;52.414;9.784;2024-03-23T15:31:06;1.40;;;0.60;;
6251;SDS011;3159;52.414;9.784;2024-03-23T15:33:33;4.13;;;1.10;;
6251;SDS011;3159;52.414;9.784;2024-03-23T15:36:00;1.23;;;0.80;;
6251;SDS011;3159;52.414;9.784;2024-03-23T15:38:28;3.27;;;0.83;;
6251;SDS011;3159;52.414;9.784;2024-03-23T15:40:55;1.67;;;1.10;;
6251;SDS011;3159;52.414;9.784;2024-03-23T15:43:21;0.87;;;0.77;;
6251;SDS011;3159;52.414;9.784;2024-03-23T15:45:53;3.43;;;1.07;;
6251;SDS011;3159;52.414;9.784;2024-03-23T15:48:19;2.70;;;1.10;;
6251;SDS011;3159;52.414;9.784;2024-03-23T15:50:50;1.77;;;1.20;;
6251;SDS011;3159;52.414;9.784;2024-03-23T15:53:17;4.47;;;2.60;;
6251;SDS011;3159;52.414;9.784;2024-03-23T15:55:45;5.03;;;1.37;;
6251;SDS011;3159;52.414;9.784;2024-03-23T15:58:18;1.13;;;0.80;;
6251;SDS011;3159;52.414;9.784;2024-03-23T16:00:45;2.47;;;1.00;;
6251;SDS011;3159;52.414;9.784;2024-03-23T16:03:11;1.53;;;0.90;;
6251;SDS011;3159;52.414;9.784;2024-03-23T16:05:38;0.70;;;0.60;;
6251;SDS011;3159;52.414;9.784;2024-03-23T16:08:04;3.57;;;0.77;;
6251;SDS011;3159;52.414;9.784;2024-03-23T16:10:33;1.87;;;0.80;;
6251;SDS011;3159;52.414;9.784;2024-03-23T16:13:01;0.87;;;0.67;;
6251;SDS011;3159;52.414;9.784;2024-03-23T16:15:27;1.80;;;0.90;;